createdAt,value
2018-04-19T00:00:16.130Z,45.37
2018-04-19T00:02:43.680Z,41.97
2018-04-19T00:05:11.972Z,41.60
2018-04-19T00:07:39.481Z,45.30
2018-04-19T00:10:07.267Z,46.60
2018-04-19T00:12:34.785Z,39.57
2018-04-19T00:15:02.309Z,45.40
2018-04-19T00:17:30.619Z,46.53
2018-04-19T00:19:58.269Z,43.10
2018-04-19T00:22:25.810Z,48.10
2018-04-19T00:24:53.338Z,45.07
2018-04-19T00:27:21.082Z,39.70
2018-04-19T00:29:48.652Z,42.53
2018-04-19T00:32:16.177Z,47.80
2018-04-19T00:34:43.849Z,44.00
2018-04-19T00:37:12.140Z,46.90
2018-04-19T00:39:39.656Z,42.40
2018-04-19T00:42:07.203Z,41.50
2018-04-19T00:44:34.752Z,48.77
2018-04-19T00:47:02.263Z,44.80
2018-04-19T00:49:29.904Z,46.67
2018-04-19T00:51:57.422Z,49.03
2018-04-19T00:54:24.941Z,44.97
2018-04-19T00:56:52.492Z,48.23
2018-04-19T00:59:20.026Z,51.87
2018-04-19T01:01:47.563Z,56.17
2018-04-19T01:04:15.892Z,57.43
2018-04-19T01:06:43.407Z,54.33
2018-04-19T01:09:11.688Z,51.40
2018-04-19T01:11:39.986Z,44.37
2018-04-19T01:14:07.511Z,49.47
2018-04-19T01:16:35.024Z,46.20
2018-04-19T01:19:02.661Z,41.60
2018-04-19T01:21:30.952Z,43.00
2018-04-19T01:23:59.225Z,47.30
2018-04-19T01:26:27.623Z,48.43
2018-04-19T01:28:55.144Z,46.63
2018-04-19T01:31:22.671Z,43.70
2018-04-19T01:33:50.226Z,48.50
2018-04-19T01:36:25.715Z,54.57
2018-04-19T01:38:53.384Z,45.50
2018-04-19T01:41:20.908Z,44.20
2018-04-19T01:43:48.428Z,49.17
2018-04-19T01:46:16.833Z,44.70
2018-04-19T01:48:44.349Z,39.90
2018-04-19T01:51:11.873Z,37.13
2018-04-19T01:53:39.417Z,36.07
2018-04-19T01:56:07.686Z,31.07
2018-04-19T01:58:36.149Z,30.83
2018-04-19T02:01:03.678Z,30.13
2018-04-19T02:03:31.198Z,28.60
2018-04-19T02:05:59.605Z,31.37
2018-04-19T02:08:27.140Z,31.87
2018-04-19T02:10:55.416Z,30.87
2018-04-19T02:13:23.045Z,31.73
2018-04-19T02:15:50.585Z,39.10
2018-04-19T02:18:18.094Z,31.33
2018-04-19T02:20:45.622Z,34.53
2018-04-19T02:23:13.140Z,31.83
2018-04-19T02:25:41.416Z,33.23
2018-04-19T02:28:09.726Z,35.37
2018-04-19T02:30:37.245Z,38.23
2018-04-19T02:33:04.769Z,35.67
2018-04-19T02:35:32.401Z,36.00
2018-04-19T02:38:00.670Z,37.40
2018-04-19T02:40:29.049Z,35.00
2018-04-19T02:42:56.559Z,35.53
2018-04-19T02:45:24.084Z,36.03
2018-04-19T02:47:52.583Z,37.20
2018-04-19T02:50:20.114Z,30.20
2018-04-19T02:52:47.624Z,38.07
2018-04-19T02:55:15.321Z,32.50
2018-04-19T02:57:42.828Z,32.40
2018-04-19T03:00:11.099Z,32.80
2018-04-19T03:02:39.516Z,32.10
2018-04-19T03:05:07.035Z,32.87
2018-04-19T03:07:34.547Z,37.10
2018-04-19T03:10:02.098Z,33.00
2018-04-19T03:12:29.623Z,34.70
2018-04-19T03:14:57.237Z,33.67
2018-04-19T03:17:24.885Z,34.83
2018-04-19T03:19:53.167Z,38.10
2018-04-19T03:22:20.688Z,33.63
2018-04-19T03:24:48.232Z,34.13
2018-04-19T03:27:15.752Z,31.63
2018-04-19T03:29:43.304Z,32.23
2018-04-19T03:32:11.722Z,39.87
2018-04-19T03:34:39.285Z,37.83
2018-04-19T03:37:06.813Z,30.93
2018-04-19T03:39:35.211Z,36.07
2018-04-19T03:42:03.495Z,37.13
2018-04-19T03:44:31.894Z,36.17
2018-04-19T03:46:59.406Z,38.60
2018-04-19T03:49:26.944Z,31.57
2018-04-19T03:51:54.669Z,31.87
2018-04-19T03:54:22.948Z,36.97
2018-04-19T03:56:51.231Z,33.97
2018-04-19T03:59:19.644Z,35.67
2018-04-19T04:01:47.142Z,33.07
2018-04-19T04:04:14.678Z,38.30
2018-04-19T04:06:42.227Z,43.90
2018-04-19T04:09:09.741Z,39.73
2018-04-19T04:11:37.268Z,40.87
2018-04-19T04:14:04.823Z,38.73
2018-04-19T04:16:44.292Z,37.80
2018-04-19T04:19:37.624Z,41.07
2018-04-19T04:22:17.056Z,46.90
2018-04-19T04:24:44.610Z,44.77
2018-04-19T04:27:12.128Z,39.93
2018-04-19T04:29:40.409Z,41.83
2018-04-19T04:32:08.796Z,44.30
2018-04-19T04:34:37.085Z,39.37
2018-04-19T04:37:04.602Z,44.63
2018-04-19T04:39:32.253Z,44.73
2018-04-19T04:41:59.796Z,43.30
2018-04-19T04:44:27.348Z,45.90
2018-04-19T04:46:55.034Z,37.63
2018-04-19T04:49:22.552Z,41.30
2018-04-19T04:51:50.089Z,42.87
2018-04-19T04:54:17.812Z,43.00
2018-04-19T04:56:45.348Z,43.00
2018-04-19T04:59:13.674Z,45.87
2018-04-19T05:01:41.229Z,41.67
2018-04-19T05:04:08.741Z,39.73
2018-04-19T05:06:36.249Z,36.40
2018-04-19T05:09:03.894Z,39.20
2018-04-19T05:11:32.184Z,41.67
2018-04-19T05:13:59.715Z,45.40
2018-04-19T05:16:27.272Z,45.20
2018-04-19T05:18:54.790Z,36.00
2018-04-19T05:21:22.299Z,41.93
2018-04-19T05:23:50.021Z,43.00
2018-04-19T05:26:17.560Z,39.90
2018-04-19T05:28:45.069Z,38.37
2018-04-19T05:31:12.733Z,41.83
2018-04-19T05:33:40.244Z,43.67
2018-04-19T05:36:08.561Z,37.43
2018-04-19T05:38:36.101Z,41.77
2018-04-19T05:41:04.432Z,43.23
2018-04-19T05:43:32.854Z,42.10
2018-04-19T05:46:00.368Z,41.83
2018-04-19T05:48:27.884Z,43.83
2018-04-19T05:50:56.208Z,39.60
2018-04-19T05:53:23.730Z,39.13
2018-04-19T05:55:52.021Z,41.13
2018-04-19T05:58:20.334Z,38.67
2018-04-19T06:00:47.846Z,39.40
2018-04-19T06:03:16.140Z,42.13
2018-04-19T06:05:44.447Z,41.23
2018-04-19T06:08:11.992Z,43.03
2018-04-19T06:10:40.275Z,41.93
2018-04-19T06:13:08.766Z,45.10
2018-04-19T06:15:37.156Z,41.67
2018-04-19T06:18:04.685Z,37.80
2018-04-19T06:20:32.219Z,39.53
2018-04-19T06:22:59.741Z,40.87
2018-04-19T06:25:27.275Z,46.07
2018-04-19T06:27:54.927Z,43.77
2018-04-19T06:30:22.510Z,37.27
2018-04-19T06:32:50.787Z,45.97
2018-04-19T06:35:18.334Z,38.53
2018-04-19T06:37:45.843Z,42.30
2018-04-19T06:40:13.369Z,45.33
2018-04-19T06:42:41.032Z,47.73
2018-04-19T06:45:08.547Z,42.83
2018-04-19T06:47:36.061Z,40.77
2018-04-19T06:50:03.713Z,46.10
2018-04-19T06:52:31.244Z,42.80
2018-04-19T06:54:58.772Z,44.83
2018-04-19T06:57:27.188Z,42.57
2018-04-19T06:59:54.717Z,43.73
2018-04-19T07:02:23.003Z,43.03
2018-04-19T07:04:51.415Z,42.20
2018-04-19T07:07:18.933Z,40.90
2018-04-19T07:09:46.474Z,38.53
2018-04-19T07:12:14.044Z,40.10
2018-04-19T07:14:41.641Z,35.37
2018-04-19T07:17:09.139Z,38.37
2018-04-19T07:19:36.679Z,41.10
2018-04-19T07:22:04.219Z,43.40
2018-04-19T07:24:32.511Z,42.77
2018-04-19T07:27:01.016Z,37.33
2018-04-19T07:29:28.532Z,36.10
2018-04-19T07:31:56.043Z,37.00
2018-04-19T07:34:23.684Z,39.97
2018-04-19T07:36:51.968Z,41.33
2018-04-19T07:39:20.238Z,46.23
2018-04-19T07:41:47.876Z,39.27
2018-04-19T07:44:16.151Z,43.87
2018-04-19T07:46:43.678Z,37.73
2018-04-19T07:49:11.316Z,40.13
2018-04-19T07:51:39.602Z,41.20
2018-04-19T07:54:08.013Z,39.30
2018-04-19T07:56:35.558Z,31.30
2018-04-19T07:59:03.849Z,35.10
2018-04-19T08:01:31.413Z,36.17
2018-04-19T08:03:58.936Z,32.37
2018-04-19T08:06:26.469Z,28.80
2018-04-19T08:08:54.022Z,29.37
2018-04-19T08:11:21.622Z,28.80
2018-04-19T08:13:49.120Z,27.33
2018-04-19T08:16:16.819Z,27.17
2018-04-19T08:18:44.368Z,26.77
2018-04-19T08:21:11.979Z,27.97
2018-04-19T08:23:39.550Z,25.67
2018-04-19T08:26:07.111Z,25.67
2018-04-19T08:28:34.864Z,22.03
2018-04-19T08:31:02.569Z,22.00
2018-04-19T08:33:30.923Z,23.40
2018-04-19T08:35:58.665Z,23.23
2018-04-19T08:38:26.335Z,24.30
2018-04-19T08:40:53.890Z,22.83
2018-04-19T08:43:21.489Z,24.07
2018-04-19T08:45:49.086Z,20.40
2018-04-19T08:48:16.675Z,19.27
2018-04-19T08:50:44.207Z,21.20
2018-04-19T08:53:12.540Z,20.37
2018-04-19T08:55:40.081Z,24.97
2018-04-19T08:58:07.625Z,24.53
2018-04-19T09:00:35.313Z,23.00
2018-04-19T09:03:02.889Z,25.60
2018-04-19T09:05:30.435Z,19.40
2018-04-19T09:07:58.238Z,23.43
2018-04-19T09:10:25.764Z,21.30
2018-04-19T09:12:53.303Z,19.53
2018-04-19T09:15:21.695Z,22.47
2018-04-19T09:17:49.975Z,20.47
2018-04-19T09:20:18.267Z,19.73
2018-04-19T09:22:46.052Z,19.60
2018-04-19T09:25:13.576Z,19.60
2018-04-19T09:27:41.860Z,13.63
2018-04-19T09:30:10.341Z,15.83
2018-04-19T09:32:37.866Z,17.30
2018-04-19T09:35:05.406Z,13.07
2018-04-19T09:37:33.021Z,18.90
2018-04-19T09:40:00.539Z,19.33
2018-04-19T09:42:28.064Z,16.30
2018-04-19T09:44:56.465Z,15.30
2018-04-19T09:47:23.986Z,15.13
2018-04-19T09:49:51.492Z,14.03
2018-04-19T09:52:19.108Z,14.00
2018-04-19T09:54:46.627Z,14.13
2018-04-19T09:57:14.151Z,11.27
2018-04-19T09:59:41.787Z,8.37
2018-04-19T10:02:09.293Z,13.13
2018-04-19T10:04:37.571Z,12.23
2018-04-19T10:07:05.971Z,10.80
2018-04-19T10:09:34.242Z,10.87
2018-04-19T10:12:02.517Z,12.20
2018-04-19T10:14:30.816Z,8.50
2018-04-19T10:16:58.331Z,11.23
2018-04-19T10:19:25.857Z,11.00
2018-04-19T10:21:53.491Z,10.10
2018-04-19T10:24:21.789Z,13.37
2018-04-19T10:26:49.318Z,11.77
2018-04-19T10:29:16.907Z,12.17
2018-04-19T10:31:45.192Z,12.27
2018-04-19T10:34:13.459Z,8.53
2018-04-19T10:36:41.842Z,11.07
2018-04-19T10:39:10.123Z,16.03
2018-04-19T10:41:38.398Z,11.53
2018-04-19T10:44:06.795Z,12.90
2018-04-19T10:46:35.084Z,9.70
2018-04-19T10:49:03.361Z,9.57
2018-04-19T10:51:31.760Z,7.57
2018-04-19T10:53:59.287Z,9.50
2018-04-19T10:56:26.789Z,6.97
2018-04-19T10:58:54.559Z,8.40
2018-04-19T11:01:22.075Z,9.27
2018-04-19T11:03:49.630Z,7.30
2018-04-19T11:06:17.197Z,9.43
2018-04-19T11:08:44.784Z,8.77
2018-04-19T11:11:13.096Z,11.10
2018-04-19T11:13:40.759Z,15.07
2018-04-19T11:16:08.282Z,7.33
2018-04-19T11:18:35.824Z,8.17
2018-04-19T11:21:03.372Z,4.47
2018-04-19T11:23:30.900Z,5.57
2018-04-19T11:25:58.418Z,8.80
2018-04-19T11:28:26.136Z,6.33
2018-04-19T11:30:53.674Z,12.37
2018-04-19T11:33:21.965Z,8.27
2018-04-19T11:35:49.751Z,6.87
2018-04-19T11:38:17.303Z,7.07
2018-04-19T11:40:44.817Z,3.93
2018-04-19T11:43:12.544Z,6.80
2018-04-19T11:45:40.064Z,8.03
2018-04-19T11:48:07.575Z,6.53
2018-04-19T11:50:35.129Z,4.73
2018-04-19T11:53:02.695Z,5.97
2018-04-19T11:55:30.225Z,8.07
2018-04-19T11:57:57.888Z,9.20
2018-04-19T12:00:25.391Z,10.33
2018-04-19T12:02:52.918Z,11.80
2018-04-19T12:05:20.582Z,7.00
2018-04-19T12:07:48.104Z,4.33
2018-04-19T12:10:15.620Z,8.30
2018-04-19T12:12:43.171Z,9.20
2018-04-19T12:15:10.700Z,3.87
2018-04-19T12:17:38.224Z,5.20
2018-04-19T12:20:06.654Z,4.03
2018-04-19T12:22:34.231Z,6.90
2018-04-19T12:25:02.513Z,6.70
2018-04-19T12:27:30.210Z,8.27
2018-04-19T12:29:58.490Z,7.50
2018-04-19T12:32:26.835Z,9.93
2018-04-19T12:34:54.400Z,7.73
2018-04-19T12:37:21.922Z,4.83
2018-04-19T12:39:49.462Z,10.80
2018-04-19T12:42:17.741Z,6.63
2018-04-19T12:44:46.044Z,7.33
2018-04-19T12:47:13.593Z,12.50
2018-04-19T12:49:41.915Z,5.60
2018-04-19T12:52:09.532Z,6.83
2018-04-19T12:54:37.838Z,8.63
2018-04-19T12:57:05.406Z,10.10
2018-04-19T12:59:32.947Z,11.40
2018-04-19T13:02:01.225Z,9.83
2018-04-19T13:04:29.582Z,8.23
2018-04-19T13:06:57.224Z,7.87
2018-04-19T13:09:24.746Z,8.03
2018-04-19T13:11:53.150Z,6.73
2018-04-19T13:14:20.680Z,7.97
2018-04-19T13:16:48.974Z,6.97
2018-04-19T13:19:17.258Z,8.07
2018-04-19T13:21:44.935Z,9.07
2018-04-19T13:24:12.467Z,5.97
2018-04-19T13:26:40.748Z,8.33
2018-04-19T13:29:08.550Z,8.10
2018-04-19T13:31:36.113Z,8.50
2018-04-19T13:34:03.684Z,6.40
2018-04-19T13:36:31.331Z,5.47
2018-04-19T13:38:58.846Z,5.90
2018-04-19T13:41:26.370Z,6.37
2018-04-19T13:43:54.043Z,5.83
2018-04-19T13:46:21.573Z,6.77
2018-04-19T13:48:49.864Z,7.40
2018-04-19T13:51:18.217Z,6.13
2018-04-19T13:53:45.725Z,6.27
2018-04-19T13:56:13.241Z,6.13
2018-04-19T13:58:40.801Z,7.10
2018-04-19T14:01:08.409Z,9.07
2018-04-19T14:03:35.938Z,5.23
2018-04-19T14:06:03.664Z,5.10
2018-04-19T14:08:31.189Z,6.17
2018-04-19T14:10:59.462Z,7.43
2018-04-19T14:13:27.790Z,3.50
2018-04-19T14:15:55.368Z,6.80
2018-04-19T14:18:22.920Z,5.00
2018-04-19T14:20:50.623Z,4.97
2018-04-19T14:23:18.171Z,5.93
2018-04-19T14:25:45.769Z,4.20
2018-04-19T14:28:14.218Z,4.07
2018-04-19T14:30:41.743Z,5.37
2018-04-19T14:33:09.363Z,8.47
2018-04-19T14:35:37.069Z,6.80
2018-04-19T14:38:04.616Z,4.03
2018-04-19T14:40:32.954Z,5.67
2018-04-19T14:43:00.682Z,5.40
2018-04-19T14:45:28.211Z,4.20
2018-04-19T14:47:55.736Z,3.23
2018-04-19T14:50:23.530Z,5.77
2018-04-19T14:52:51.067Z,3.80
2018-04-19T14:55:18.620Z,6.23
2018-04-19T14:57:46.355Z,7.77
2018-04-19T15:00:13.897Z,5.47
2018-04-19T15:02:41.416Z,5.50
2018-04-19T15:05:09.135Z,8.53
2018-04-19T15:07:36.682Z,5.23
2018-04-19T15:10:04.211Z,4.80
2018-04-19T15:12:31.948Z,6.03
2018-04-19T15:15:00.313Z,6.97
2018-04-19T15:17:27.892Z,6.40
2018-04-19T15:19:56.244Z,6.73
2018-04-19T15:22:23.744Z,6.17
2018-04-19T15:24:52.038Z,10.17
2018-04-19T15:27:19.683Z,7.13
2018-04-19T15:29:48.031Z,4.80
2018-04-19T15:32:15.557Z,8.30
2018-04-19T15:34:43.107Z,5.70
2018-04-19T15:37:10.750Z,4.80
2018-04-19T15:39:38.592Z,6.37
2018-04-19T15:42:06.244Z,6.90
2018-04-19T15:44:33.781Z,3.47
2018-04-19T15:47:01.311Z,5.47
2018-04-19T15:49:29.206Z,8.70
2018-04-19T15:51:56.740Z,6.93
2018-04-19T15:54:24.296Z,4.80
2018-04-19T15:56:51.858Z,4.30
2018-04-19T15:59:19.368Z,4.03
2018-04-19T16:01:46.889Z,5.77
2018-04-19T16:04:14.531Z,5.33
2018-04-19T16:06:42.163Z,4.10
2018-04-19T16:09:09.689Z,4.40
2018-04-19T16:11:37.458Z,7.60
2018-04-19T16:14:05.023Z,6.00
2018-04-19T16:16:32.560Z,4.17
2018-04-19T16:19:00.336Z,5.37
2018-04-19T16:21:27.956Z,9.20
2018-04-19T16:23:55.570Z,5.67
2018-04-19T16:26:23.230Z,4.83
2018-04-19T16:28:50.748Z,4.97
2018-04-19T16:31:18.259Z,7.80
2018-04-19T16:33:45.904Z,6.60
2018-04-19T16:36:13.434Z,9.17
2018-04-19T16:38:41.727Z,8.13
2018-04-19T16:41:10.151Z,7.83
2018-04-19T16:43:37.682Z,5.80
2018-04-19T16:46:05.208Z,6.40
2018-04-19T16:48:33.605Z,5.53
2018-04-19T16:51:01.908Z,5.30
2018-04-19T16:53:29.453Z,5.83
2018-04-19T16:55:57.013Z,4.50
2018-04-19T16:58:25.316Z,5.37
2018-04-19T17:00:52.866Z,3.37
2018-04-19T17:03:20.408Z,5.63
2018-04-19T17:05:48.752Z,4.50
2018-04-19T17:08:16.273Z,7.90
2018-04-19T17:10:43.943Z,4.80
2018-04-19T17:13:11.472Z,6.57
2018-04-19T17:15:39.041Z,8.27
2018-04-19T17:18:06.733Z,8.87
2018-04-19T17:20:34.270Z,7.77
2018-04-19T17:23:01.795Z,5.77
2018-04-19T17:25:29.421Z,6.20
2018-04-19T17:27:57.775Z,5.17
2018-04-19T17:30:25.326Z,10.50
2018-04-19T17:32:53.246Z,4.73
2018-04-19T17:35:20.777Z,5.37
2018-04-19T17:37:48.336Z,6.97
2018-04-19T17:40:16.165Z,7.27
2018-04-19T17:42:43.806Z,8.33
2018-04-19T17:45:12.158Z,6.27
2018-04-19T17:47:39.762Z,8.50
2018-04-19T17:50:07.322Z,8.17
2018-04-19T17:52:34.855Z,8.03
2018-04-19T17:55:02.466Z,10.27
2018-04-19T17:57:30.020Z,8.83
2018-04-19T17:59:57.596Z,10.67
2018-04-19T18:02:25.266Z,7.23
2018-04-19T18:04:52.819Z,7.53
2018-04-19T18:07:20.354Z,5.30
2018-04-19T18:09:48.780Z,6.03
2018-04-19T18:12:16.303Z,6.43
2018-04-19T18:14:44.638Z,10.80
2018-04-19T18:17:12.283Z,3.70
2018-04-19T18:19:39.845Z,5.73
2018-04-19T18:22:07.365Z,4.17
2018-04-19T18:24:35.824Z,7.67
2018-04-19T18:27:03.352Z,4.10
2018-04-19T18:29:30.885Z,4.27
2018-04-19T18:31:59.294Z,6.63
2018-04-19T18:34:27.083Z,4.57
2018-04-19T18:36:54.629Z,6.17
2018-04-19T18:39:22.257Z,6.13
2018-04-19T18:41:49.800Z,8.13
2018-04-19T18:44:17.338Z,6.13
2018-04-19T18:46:45.005Z,10.63
2018-04-19T18:49:12.578Z,5.70
2018-04-19T18:51:40.089Z,8.23
2018-04-19T18:54:08.708Z,7.93
2018-04-19T18:56:36.281Z,7.43
2018-04-19T18:59:03.826Z,8.73
2018-04-19T19:01:31.588Z,7.18
2018-04-19T19:03:59.128Z,7.20
2018-04-19T19:06:26.656Z,6.27
2018-04-19T19:08:54.335Z,7.37
2018-04-19T19:11:21.883Z,6.40
2018-04-19T19:13:49.421Z,9.97
2018-04-19T19:16:17.327Z,7.83
2018-04-19T19:18:56.788Z,6.73
2018-04-19T19:21:25.164Z,5.83
2018-04-19T19:23:52.762Z,8.50
2018-04-19T19:26:20.274Z,7.33
2018-04-19T19:28:47.825Z,9.10
2018-04-19T19:31:15.374Z,14.23
2018-04-19T19:33:42.891Z,12.83
2018-04-19T19:36:10.594Z,10.90
2018-04-19T19:38:38.204Z,10.80
2018-04-19T19:41:05.732Z,6.33
2018-04-19T19:43:33.310Z,10.17
2018-04-19T19:46:00.861Z,11.43
2018-04-19T19:48:28.457Z,10.73
2018-04-19T19:50:56.133Z,10.00
2018-04-19T19:53:23.660Z,9.60
2018-04-19T19:55:51.209Z,11.80
2018-04-19T19:58:18.851Z,7.17
2018-04-19T20:00:47.323Z,10.13
2018-04-19T20:03:15.779Z,9.53
2018-04-19T20:05:43.479Z,14.97
2018-04-19T20:08:11.082Z,11.83
2018-04-19T20:10:38.607Z,10.80
2018-04-19T20:13:06.134Z,11.40
2018-04-19T20:15:33.733Z,11.30
2018-04-19T20:18:01.300Z,7.67
2018-04-19T20:20:29.690Z,12.17
2018-04-19T20:22:57.278Z,8.97
2018-04-19T20:25:25.103Z,8.40
2018-04-19T20:27:52.708Z,7.90
2018-04-19T20:30:20.327Z,10.93
2018-04-19T20:32:48.032Z,12.17
2018-04-19T20:35:15.615Z,9.70
2018-04-19T20:37:43.520Z,14.47
2018-04-19T20:40:11.244Z,9.63
2018-04-19T20:42:39.569Z,14.40
2018-04-19T20:45:07.303Z,11.67
2018-04-19T20:47:35.063Z,10.93
2018-04-19T20:50:02.622Z,8.63
2018-04-19T20:52:31.038Z,9.20
2018-04-19T20:54:58.672Z,11.67
2018-04-19T20:57:27.025Z,13.77
2018-04-19T20:59:54.954Z,8.43
2018-04-19T21:02:22.846Z,15.63
2018-04-19T21:04:50.570Z,8.73
2018-04-19T21:07:18.867Z,9.27
2018-04-19T21:09:47.109Z,10.93
2018-04-19T21:12:15.577Z,9.23
2018-04-19T21:14:43.142Z,12.57
2018-04-19T21:17:10.781Z,11.83
2018-04-19T21:19:38.373Z,15.67
2018-04-19T21:22:05.897Z,9.73
2018-04-19T21:24:33.561Z,9.43
2018-04-19T21:27:01.125Z,12.67
2018-04-19T21:29:28.658Z,9.87
2018-04-19T21:31:57.073Z,7.60
2018-04-19T21:34:24.611Z,12.17
2018-04-19T21:36:52.261Z,10.40
2018-04-19T21:39:20.559Z,13.63
2018-04-19T21:41:48.074Z,11.77
2018-04-19T21:44:15.588Z,10.77
2018-04-19T21:46:43.119Z,15.40
2018-04-19T21:49:10.636Z,13.50
2018-04-19T21:51:38.189Z,12.47
2018-04-19T21:54:05.835Z,9.90
2018-04-19T21:56:34.129Z,9.30
2018-04-19T21:59:01.686Z,14.53
2018-04-19T22:01:29.348Z,13.10
2018-04-19T22:03:57.666Z,11.93
2018-04-19T22:06:25.233Z,10.33
2018-04-19T22:08:53.720Z,11.77
2018-04-19T22:11:21.214Z,10.93
2018-04-19T22:13:48.833Z,11.60
2018-04-19T22:16:16.382Z,12.67
2018-04-19T22:18:43.921Z,10.07
2018-04-19T22:21:12.240Z,8.20
2018-04-19T22:23:39.889Z,7.23
2018-04-19T22:26:07.413Z,9.27
2018-04-19T22:28:34.951Z,10.03
2018-04-19T22:31:02.621Z,13.10
2018-04-19T22:33:30.144Z,13.20
2018-04-19T22:35:57.657Z,11.17
2018-04-19T22:38:25.212Z,9.40
2018-04-19T22:40:52.738Z,9.00
2018-04-19T22:43:20.259Z,10.80
2018-04-19T22:45:47.891Z,11.37
2018-04-19T22:48:15.416Z,12.13
2018-04-19T22:50:43.709Z,12.13
2018-04-19T22:53:11.362Z,12.93
2018-04-19T22:55:39.673Z,13.07
2018-04-19T22:58:07.186Z,9.53
2018-04-19T23:00:34.860Z,15.73
2018-04-19T23:03:02.375Z,12.63
2018-04-19T23:05:29.941Z,11.87
2018-04-19T23:07:57.590Z,11.20
2018-04-19T23:10:25.106Z,11.27
2018-04-19T23:12:52.623Z,12.50
2018-04-19T23:15:20.267Z,11.27
2018-04-19T23:17:47.815Z,10.50
2018-04-19T23:20:16.152Z,11.90
2018-04-19T23:22:43.804Z,12.90
2018-04-19T23:25:11.336Z,10.93
2018-04-19T23:27:39.708Z,13.40
2018-04-19T23:30:08.028Z,14.00
2018-04-19T23:32:35.607Z,13.20
2018-04-19T23:35:03.132Z,11.27
2018-04-19T23:37:31.599Z,12.53
2018-04-19T23:39:59.089Z,11.67
2018-04-19T23:42:26.606Z,11.97
2018-04-19T23:44:54.198Z,14.20
2018-04-19T23:47:22.515Z,11.63
2018-04-19T23:49:50.046Z,12.77
2018-04-19T23:52:17.597Z,9.57
2018-04-19T23:54:45.996Z,8.93
2018-04-19T23:57:13.547Z,12.40
2018-04-19T23:59:41.871Z,8.13
